Wetterdaten: Woche 08.03.21 - 14.03.21 (KW10)
Datum Zeit Temp. A. Feuchte A. Luftdruck Regen Wind Richtung Taupunkt Windchill Windben
08.03.2021 00:00 -0,7 C 75 % 1017,5 hPa 0,0 l/m 0,0 km/h N -4,6 C -0,7 C 0,8 km/h
08.03.2021 01:00 -1,2 C 78 % 1017,4 hPa 0,0 l/m 0,0 km/h N -4,5 C -1,2 C 0,4 km/h
08.03.2021 02:00 0,3 C 77 % 1017,1 hPa 0,0 l/m 0,1 km/h N -3,4 C 0,3 C 0,8 km/h
08.03.2021 03:00 -0,1 C 74 % 1016,8 hPa 0,0 l/m 0,0 km/h N -4,1 C -0,1 C 0,0 km/h
08.03.2021 04:00 0,7 C 75 % 1017,3 hPa 0,0 l/m 1,4 km/h N -3,3 C 0,7 C 6,8 km/h
08.03.2021 05:00 1,1 C 71 % 1018,0 hPa 0,0 l/m 2,6 km/h N -3,5 C 1,1 C 11,7 km/h
08.03.2021 06:00 0,5 C 71 % 1018,6 hPa 0,0 l/m 2,0 km/h N -4,1 C 0,5 C 7,6 km/h
08.03.2021 07:00 0,3 C 73 % 1019,0 hPa 0,0 l/m 0,6 km/h N -3,9 C 0,3 C 4,8 km/h
08.03.2021 08:00 1,6 C 70 % 1019,3 hPa 0,0 l/m 2,5 km/h N -3,2 C 1,6 C 10,9 km/h
08.03.2021 09:00 3,1 C 66 % 1019,5 hPa 0,0 l/m 4,6 km/h N -2,7 C 3,1 C 17,7 km/h
08.03.2021 10:00 4,6 C 61 % 1019,6 hPa 0,0 l/m 5,2 km/h N -2,3 C 4,5 C 17,3 km/h
08.03.2021 11:00 5,1 C 61 % 1020,0 hPa 0,0 l/m 4,7 km/h N -1,9 C 5,1 C 18,9 km/h
08.03.2021 12:00 5,8 C 58 % 1019,9 hPa 0,0 l/m 3,6 km/h N -1,9 C 5,8 C 16,5 km/h
08.03.2021 13:00 6,4 C 56 % 1019,4 hPa 0,0 l/m 3,3 km/h N -1,7 C 6,4 C 13,7 km/h
08.03.2021 14:00 6,6 C 58 % 1019,1 hPa 0,0 l/m 3,0 km/h N -1,0 C 6,6 C 16,9 km/h
08.03.2021 15:00 6,1 C 60 % 1019,3 hPa 0,0 l/m 3,4 km/h N -1,0 C 6,1 C 15,3 km/h
08.03.2021 16:00 4,9 C 63 % 1019,5 hPa 0,0 l/m 5,1 km/h N -1,5 C 4,9 C 18,9 km/h
08.03.2021 17:00 4,2 C 65 % 1020,0 hPa 0,0 l/m 3,3 km/h N -1,7 C 4,2 C 16,9 km/h
08.03.2021 18:00 3,9 C 64 % 1020,7 hPa 0,0 l/m 0,6 km/h N -2,2 C 3,9 C 5,6 km/h
08.03.2021 19:00 3,8 C 65 % 1021,3 hPa 0,0 l/m 0,3 km/h N -2,3 C 3,8 C 2,8 km/h
08.03.2021 20:00 3,4 C 69 % 1021,8 hPa 0,0 l/m 0,3 km/h N -1,8 C 3,4 C 4,0 km/h
08.03.2021 21:00 2,5 C 71 % 1022,0 hPa 0,0 l/m 0,1 km/h N -2,3 C 2,5 C 2,0 km/h
08.03.2021 22:00 2,1 C 68 % 1022,3 hPa 0,0 l/m 0,0 km/h N -3,2 C 2,1 C 0,0 km/h
08.03.2021 23:00 1,7 C 68 % 1022,2 hPa 0,0 l/m 0,0 km/h N -3,5 C 1,7 C 0,0 km/h
09.03.2021 00:00 1,3 C 71 % 1022,0 hPa 0,0 l/m 0,0 km/h N -3,5 C 1,3 C 0,0 km/h
09.03.2021 01:00 0,8 C 72 % 1021,8 hPa 0,0 l/m 0,0 km/h N -3,6 C 0,8 C 0,0 km/h
09.03.2021 02:00 0,6 C 74 % 1021,5 hPa 0,0 l/m 0,0 km/h N -3,4 C 0,6 C 0,0 km/h
09.03.2021 03:00 0,4 C 75 % 1021,2 hPa 0,0 l/m 0,0 km/h N -3,5 C 0,4 C 0,0 km/h
09.03.2021 04:00 -0,0 C 76 % 1021,0 hPa 0,0 l/m 0,0 km/h N -3,7 C -0,0 C 0,0 km/h
09.03.2021 05:00 -1,3 C 76 % 1021,1 hPa 0,0 l/m 0,0 km/h N -5,0 C -1,3 C 0,0 km/h
09.03.2021 06:00 -2,1 C 78 % 1021,0 hPa 0,0 l/m 0,0 km/h N -5,4 C -2,1 C 0,0 km/h
09.03.2021 07:00 -2,3 C 81 % 1021,1 hPa 0,0 l/m 0,0 km/h N -5,2 C -2,3 C 0,0 km/h
09.03.2021 08:00 -1,4 C 81 % 1021,3 hPa 0,0 l/m 0,0 km/h N -4,2 C -1,4 C 0,0 km/h
09.03.2021 09:00 0,3 C 81 % 1021,1 hPa 0,0 l/m 0,0 km/h N -2,5 C 0,3 C 0,4 km/h
09.03.2021 10:00 1,5 C 70 % 1020,8 hPa 0,0 l/m 0,2 km/h N -3,4 C 1,5 C 2,0 km/h
09.03.2021 11:00 2,9 C 60 % 1020,4 hPa 0,0 l/m 0,3 km/h N -4,0 C 2,9 C 2,4 km/h
09.03.2021 12:00 3,7 C 53 % 1020,0 hPa 0,0 l/m 0,4 km/h N -5,0 C 3,7 C 3,2 km/h
09.03.2021 13:00 4,0 C 48 % 1019,2 hPa 0,0 l/m 0,6 km/h N -6,0 C 4,0 C 4,0 km/h
09.03.2021 14:00 4,6 C 49 % 1018,6 hPa 0,0 l/m 0,2 km/h N -5,3 C 4,6 C 2,4 km/h
09.03.2021 15:00 4,9 C 49 % 1018,2 hPa 0,0 l/m 0,1 km/h N -4,9 C 4,9 C 2,0 km/h
09.03.2021 16:00 4,4 C 51 % 1017,9 hPa 0,0 l/m 0,1 km/h N -4,9 C 4,4 C 1,6 km/h
09.03.2021 17:00 3,5 C 54 % 1018,0 hPa 0,0 l/m 0,0 km/h N -5,0 C 3,5 C 0,4 km/h
09.03.2021 18:00 2,6 C 56 % 1018,7 hPa 0,0 l/m 0,0 km/h N -5,3 C 2,6 C 0,0 km/h
09.03.2021 19:00 1,4 C 58 % 1019,1 hPa 0,0 l/m 0,0 km/h N -6,0 C 1,4 C 0,0 km/h
09.03.2021 20:00 -0,4 C 64 % 1019,2 hPa 0,0 l/m 0,0 km/h N -6,4 C -0,4 C 0,0 km/h
09.03.2021 21:00 -1,4 C 70 % 1019,3 hPa 0,0 l/m 0,0 km/h N -6,1 C -1,4 C 0,0 km/h
09.03.2021 22:00 -1,6 C 74 % 1019,3 hPa 0,0 l/m 0,0 km/h N -5,6 C -1,6 C 0,0 km/h
09.03.2021 23:00 -1,6 C 74 % 1019,2 hPa 0,0 l/m 0,0 km/h N -5,6 C -1,6 C 0,0 km/h
10.03.2021 00:00 -1,7 C 76 % 1019,0 hPa 0,0 l/m 0,0 km/h N -5,4 C -1,7 C 0,0 km/h
10.03.2021 01:00 -1,2 C 77 % 1019,0 hPa 0,0 l/m 0,0 km/h N -4,7 C -1,2 C 0,0 km/h
10.03.2021 02:00 -0,6 C 76 % 1018,8 hPa 0,0 l/m 0,0 km/h N -4,3 C -0,6 C 0,0 km/h
10.03.2021 03:00 -0,4 C 75 % 1018,6 hPa 0,0 l/m 0,0 km/h N -4,2 C -0,4 C 0,0 km/h
10.03.2021 04:00 -0,3 C 76 % 1018,8 hPa 0,0 l/m 0,0 km/h N -4,1 C -0,3 C 0,0 km/h
10.03.2021 05:00 -0,2 C 74 % 1019,0 hPa 0,0 l/m 0,0 km/h N -4,2 C -0,2 C 0,0 km/h
10.03.2021 06:00 0,2 C 71 % 1019,2 hPa 0,0 l/m 0,0 km/h N -4,4 C 0,2 C 0,0 km/h
10.03.2021 07:00 0,4 C 72 % 1019,5 hPa 0,0 l/m 0,0 km/h N -4,2 C 0,4 C 0,0 km/h
10.03.2021 08:00 2,2 C 73 % 1020,0 hPa 0,0 l/m 0,5 km/h N -2,2 C 2,2 C 3,2 km/h
10.03.2021 09:00 3,4 C 70 % 1020,4 hPa 0,0 l/m 1,6 km/h N -1,5 C 3,4 C 8,0 km/h
10.03.2021 10:00 4,3 C 66 % 1020,3 hPa 0,0 l/m 1,3 km/h N -1,5 C 4,3 C 6,8 km/h
10.03.2021 11:00 5,3 C 59 % 1020,1 hPa 0,0 l/m 1,4 km/h N -2,0 C 5,3 C 7,2 km/h
10.03.2021 12:00 5,6 C 57 % 1019,9 hPa 0,0 l/m 0,9 km/h N -2,2 C 5,6 C 4,8 km/h
10.03.2021 13:00 5,5 C 57 % 1019,6 hPa 0,0 l/m 1,0 km/h N -2,4 C 5,5 C 5,2 km/h
10.03.2021 14:00 5,8 C 58 % 1019,3 hPa 0,0 l/m 1,3 km/h N -1,9 C 5,8 C 7,2 km/h
10.03.2021 15:00 5,8 C 59 % 1019,5 hPa 0,0 l/m 1,7 km/h N -1,7 C 5,8 C 9,2 km/h
10.03.2021 16:00 5,5 C 63 % 1019,7 hPa 0,0 l/m 0,9 km/h N -1,1 C 5,5 C 4,4 km/h
10.03.2021 17:00 4,9 C 67 % 1019,8 hPa 0,0 l/m 0,5 km/h N -0,8 C 4,9 C 4,0 km/h
10.03.2021 18:00 3,5 C 71 % 1020,2 hPa 0,0 l/m 0,0 km/h N -1,3 C 3,5 C 0,8 km/h
10.03.2021 19:00 2,4 C 75 % 1020,8 hPa 0,0 l/m 0,0 km/h N -1,5 C 2,4 C 0,4 km/h
10.03.2021 20:00 1,1 C 77 % 1021,0 hPa 0,0 l/m 0,0 km/h N -2,6 C 1,1 C 0,0 km/h
10.03.2021 21:00 1,1 C 80 % 1021,0 hPa 0,0 l/m 0,0 km/h N -2,0 C 1,1 C 0,0 km/h
10.03.2021 22:00 1,0 C 81 % 1020,9 hPa 0,0 l/m 0,0 km/h N -1,8 C 1,0 C 0,4 km/h
10.03.2021 23:00 0,1 C 81 % 1020,5 hPa 0,0 l/m 0,0 km/h N -2,8 C 0,1 C 0,0 km/h
11.03.2021 00:00 -1,6 C 81 % 1020,3 hPa 0,0 l/m 0,0 km/h N -4,5 C -1,6 C 0,0 km/h
11.03.2021 01:00 -2,8 C 81 % 1020,0 hPa 0,0 l/m 0,0 km/h N -5,5 C -2,8 C 0,0 km/h
11.03.2021 02:00 -3,4 C 82 % 1019,5 hPa 0,0 l/m 0,0 km/h N -6,0 C -3,4 C 0,0 km/h
11.03.2021 03:00 -3,9 C 82 % 1018,5 hPa 0,0 l/m 0,0 km/h N -6,5 C -3,9 C 0,0 km/h
11.03.2021 04:00 -4,2 C 82 % 1017,9 hPa 0,0 l/m 0,0 km/h N -6,8 C -4,2 C 0,0 km/h
11.03.2021 05:00 -4,5 C 82 % 1017,3 hPa 0,0 l/m 0,0 km/h N -7,1 C -4,5 C 0,0 km/h
11.03.2021 06:00 -4,2 C 82 % 1016,9 hPa 0,0 l/m 0,0 km/h N -6,8 C -4,2 C 0,0 km/h
11.03.2021 07:00 -3,2 C 81 % 1016,5 hPa 0,0 l/m 0,0 km/h N -6,0 C -3,2 C 0,0 km/h
11.03.2021 08:00 -0,4 C 81 % 1015,8 hPa 0,0 l/m 0,0 km/h N -3,2 C -0,4 C 0,4 km/h
11.03.2021 09:00 2,5 C 81 % 1015,3 hPa 0,0 l/m 0,1 km/h N -0,4 C 2,5 C 2,0 km/h
11.03.2021 10:00 4,4 C 81 % 1014,3 hPa 0,0 l/m 0,0 km/h N 1,4 C 4,4 C 0,4 km/h
11.03.2021 11:00 5,9 C 75 % 1013,4 hPa 0,0 l/m 0,0 km/h N 1,9 C 5,9 C 0,4 km/h
11.03.2021 12:00 7,6 C 64 % 1012,7 hPa 0,0 l/m 0,1 km/h N 1,1 C 7,6 C 2,8 km/h
11.03.2021 13:00 8,6 C 57 % 1012,0 hPa 0,0 l/m 0,8 km/h N 0,6 C 8,6 C 8,5 km/h
11.03.2021 14:00 8,7 C 57 % 1010,8 hPa 0,0 l/m 1,1 km/h N 0,5 C 8,7 C 9,6 km/h
11.03.2021 15:00 9,0 C 56 % 1010,0 hPa 0,0 l/m 0,9 km/h N 0,7 C 9,0 C 6,8 km/h
11.03.2021 16:00 8,9 C 58 % 1009,2 hPa 0,0 l/m 0,3 km/h N 1,1 C 8,9 C 5,2 km/h
11.03.2021 17:00 8,6 C 61 % 1008,5 hPa 0,0 l/m 0,0 km/h N 1,4 C 8,6 C 1,2 km/h
11.03.2021 18:00 8,0 C 62 % 1008,0 hPa 0,0 l/m 0,0 km/h N 1,2 C 8,0 C 0,8 km/h
11.03.2021 19:00 7,3 C 65 % 1007,5 hPa 0,0 l/m 0,1 km/h N 1,1 C 7,3 C 1,6 km/h
11.03.2021 20:00 7,0 C 67 % 1006,7 hPa 0,0 l/m 0,0 km/h N 1,2 C 7,0 C 0,4 km/h
11.03.2021 21:00 5,6 C 72 % 1006,3 hPa 0,0 l/m 0,0 km/h N 1,0 C 5,6 C 0,0 km/h
11.03.2021 22:00 5,6 C 75 % 1006,5 hPa 0,0 l/m 0,4 km/h N 1,5 C 5,6 C 3,6 km/h
11.03.2021 23:00 8,2 C 75 % 1007,0 hPa 0,0 l/m 4,9 km/h N 3,9 C 7,5 C 20,5 km/h
12.03.2021 00:00 9,6 C 77 % 1006,5 hPa 0,3 l/m 11,7 km/h N 5,7 C 6,3 C 36,2 km/h
12.03.2021 01:00 9,7 C 73 % 1005,9 hPa 0,0 l/m 3,8 km/h N 5,0 C 9,7 C 24,5 km/h
12.03.2021 02:00 10,6 C 69 % 1005,9 hPa 0,0 l/m 3,4 km/h N 5,2 C 10,6 C 22,1 km/h
12.03.2021 03:00 10,4 C 68 % 1006,3 hPa 0,0 l/m 3,3 km/h N 4,7 C 10,3 C 21,7 km/h
12.03.2021 04:00 9,6 C 70 % 1007,8 hPa 0,0 l/m 4,2 km/h N 4,4 C 9,6 C 21,7 km/h
12.03.2021 05:00 8,8 C 71 % 1008,5 hPa 0,0 l/m 3,0 km/h N 3,7 C 8,8 C 19,3 km/h
12.03.2021 06:00 8,2 C 68 % 1009,8 hPa 0,0 l/m 4,6 km/h N 2,7 C 8,0 C 21,3 km/h
12.03.2021 07:00 8,4 C 64 % 1010,4 hPa 0,0 l/m 5,5 km/h N 2,0 C 8,4 C 27,7 km/h
12.03.2021 08:00 9,3 C 59 % 1011,3 hPa 0,0 l/m 7,6 km/h N 1,7 C 8,3 C 33,4 km/h
12.03.2021 09:00 9,8 C 58 % 1012,0 hPa 0,3 l/m 11,5 km/h N 1,9 C 6,6 C 37,8 km/h
12.03.2021 10:00 10,7 C 54 % 1012,4 hPa 0,0 l/m 10,1 km/h N 1,8 C 8,4 C 36,6 km/h
12.03.2021 11:00 10,9 C 53 % 1012,7 hPa 0,0 l/m 7,8 km/h N 1,8 C 9,9 C 31,4 km/h
12.03.2021 12:00 11,0 C 53 % 1012,8 hPa 0,0 l/m 5,1 km/h N 1,8 C 10,9 C 21,7 km/h
12.03.2021 13:00 11,6 C 50 % 1012,4 hPa 0,0 l/m 7,6 km/h N 1,5 C 10,6 C 33,8 km/h
12.03.2021 14:00 11,5 C 49 % 1012,0 hPa 0,0 l/m 6,2 km/h N 1,0 C 11,3 C 25,3 km/h
12.03.2021 15:00 11,8 C 45 % 1011,2 hPa 0,0 l/m 7,6 km/h N 0,3 C 11,0 C 27,8 km/h
12.03.2021 16:00 11,9 C 43 % 1011,2 hPa 0,0 l/m 5,3 km/h N -0,4 C 11,8 C 24,5 km/h
12.03.2021 17:00 11,2 C 46 % 1011,3 hPa 0,0 l/m 2,0 km/h N -0,1 C 11,2 C 12,9 km/h
12.03.2021 18:00 10,0 C 49 % 1011,6 hPa 0,0 l/m 1,1 km/h N -0,1 C 10,0 C 9,3 km/h
12.03.2021 19:00 8,8 C 53 % 1012,2 hPa 0,0 l/m 0,0 km/h N -0,4 C 8,8 C 0,0 km/h
12.03.2021 20:00 6,7 C 59 % 1012,1 hPa 0,0 l/m 0,0 km/h N -0,9 C 6,7 C 0,0 km/h
12.03.2021 21:00 4,7 C 63 % 1012,0 hPa 0,0 l/m 0,0 km/h N -1,7 C 4,7 C 0,0 km/h
12.03.2021 22:00 3,1 C 69 % 1012,2 hPa 0,0 l/m 0,0 km/h N -2,0 C 3,1 C 0,0 km/h
12.03.2021 23:00 2,2 C 73 % 1012,3 hPa 0,0 l/m 0,0 km/h N -2,1 C 2,2 C 0,0 km/h
13.03.2021 00:00 1,5 C 76 % 1012,0 hPa 0,0 l/m 0,0 km/h N -2,3 C 1,5 C 0,0 km/h
13.03.2021 01:00 0,7 C 78 % 1012,0 hPa 0,0 l/m 0,0 km/h N -2,7 C 0,7 C 0,0 km/h
13.03.2021 02:00 0,7 C 78 % 1011,9 hPa 0,0 l/m 0,0 km/h N -2,7 C 0,7 C 0,0 km/h
13.03.2021 03:00 -0,3 C 79 % 1011,6 hPa 0,0 l/m 0,0 km/h N -3,5 C -0,3 C 0,8 km/h
13.03.2021 04:00 -0,9 C 80 % 1011,5 hPa 0,0 l/m 0,0 km/h N -3,9 C -0,9 C 0,0 km/h
13.03.2021 05:00 -1,1 C 81 % 1011,5 hPa 0,0 l/m 0,0 km/h N -4,0 C -1,1 C 0,0 km/h
13.03.2021 06:00 -0,8 C 82 % 1011,5 hPa 0,0 l/m 0,0 km/h N -3,6 C -0,8 C 0,0 km/h
13.03.2021 07:00 0,2 C 82 % 1011,7 hPa 0,0 l/m 0,0 km/h N -2,5 C 0,2 C 0,0 km/h
13.03.2021 08:00 2,1 C 81 % 1012,0 hPa 0,0 l/m 0,0 km/h N -0,8 C 2,1 C 0,0 km/h
13.03.2021 09:00 6,3 C 79 % 1011,8 hPa 0,0 l/m 0,0 km/h N 2,8 C 6,3 C 0,0 km/h
13.03.2021 10:00 10,3 C 59 % 1011,2 hPa 0,0 l/m 0,9 km/h N 2,6 C 10,3 C 6,8 km/h
13.03.2021 11:00 12,1 C 52 % 1010,1 hPa 0,0 l/m 0,3 km/h N 2,4 C 12,1 C 6,8 km/h
13.03.2021 12:00 14,5 C 46 % 1008,4 hPa 0,0 l/m 1,2 km/h N 2,8 C 14,5 C 10,9 km/h
13.03.2021 13:00 15,5 C 41 % 1006,8 hPa 0,0 l/m 2,9 km/h N 2,2 C 15,5 C 19,3 km/h
13.03.2021 14:00 15,5 C 46 % 1005,7 hPa 0,0 l/m 4,3 km/h N 3,9 C 15,5 C 24,9 km/h
13.03.2021 15:00 14,9 C 48 % 1005,0 hPa 0,0 l/m 5,2 km/h N 3,9 C 14,9 C 29,4 km/h
13.03.2021 16:00 14,0 C 52 % 1004,3 hPa 0,0 l/m 4,1 km/h N 4,3 C 14,0 C 24,5 km/h
13.03.2021 17:00 13,0 C 57 % 1003,7 hPa 0,0 l/m 2,7 km/h N 4,8 C 13,0 C 19,7 km/h
13.03.2021 18:00 11,9 C 61 % 1003,5 hPa 0,0 l/m 1,8 km/h N 4,5 C 11,9 C 18,9 km/h
13.03.2021 19:00 11,3 C 62 % 1004,0 hPa 0,0 l/m 1,4 km/h N 4,2 C 11,3 C 10,4 km/h
13.03.2021 20:00 9,2 C 64 % 1004,1 hPa 0,0 l/m 0,0 km/h N 2,6 C 9,2 C 0,0 km/h
13.03.2021 21:00 6,6 C 70 % 1004,6 hPa 0,0 l/m 0,0 km/h N 1,6 C 6,6 C 0,0 km/h
13.03.2021 22:00 7,3 C 68 % 1004,5 hPa 0,0 l/m 1,0 km/h N 1,7 C 7,3 C 8,0 km/h
13.03.2021 23:00 10,7 C 57 % 1004,6 hPa 0,0 l/m 4,4 km/h N 2,6 C 10,7 C 22,5 km/h
14.03.2021 00:00 9,2 C 63 % 1004,6 hPa 0,0 l/m 8,7 km/h N 2,4 C 7,6 C 33,8 km/h
14.03.2021 01:00 8,6 C 66 % 1004,9 hPa 0,0 l/m 6,0 km/h N 2,6 C 8,2 C 24,5 km/h
14.03.2021 02:00 8,3 C 67 % 1004,1 hPa 0,0 l/m 5,3 km/h N 2,5 C 8,3 C 24,5 km/h
14.03.2021 03:00 8,3 C 65 % 1004,0 hPa 0,0 l/m 4,5 km/h N 2,1 C 8,3 C 22,9 km/h
14.03.2021 04:00 8,3 C 64 % 1003,8 hPa 0,0 l/m 2,5 km/h N 1,8 C 8,3 C 17,7 km/h
14.03.2021 05:00 8,4 C 62 % 1003,8 hPa 0,0 l/m 0,5 km/h N 1,4 C 8,4 C 6,0 km/h
14.03.2021 06:00 8,3 C 62 % 1004,0 hPa 0,0 l/m 0,3 km/h N 1,4 C 8,3 C 5,2 km/h
14.03.2021 07:00 8,2 C 62 % 1005,1 hPa 0,0 l/m 0,8 km/h N 1,4 C 8,2 C 7,2 km/h
14.03.2021 08:00 8,1 C 64 % 1006,1 hPa 0,0 l/m 3,1 km/h N 1,8 C 8,1 C 17,7 km/h
14.03.2021 09:00 6,9 C 74 % 1007,4 hPa 0,3 l/m 2,2 km/h N 2,5 C 6,9 C 16,9 km/h
14.03.2021 10:00 6,9 C 75 % 1007,2 hPa 0,0 l/m 4,0 km/h N 2,8 C 6,9 C 17,3 km/h
14.03.2021 11:00 7,5 C 71 % 1007,6 hPa 0,0 l/m 2,9 km/h N 2,5 C 7,5 C 15,7 km/h
14.03.2021 12:00 6,9 C 69 % 1008,6 hPa 1,0 l/m 5,8 km/h N 1,6 C 6,3 C 27,8 km/h
14.03.2021 13:00 4,1 C 80 % 1009,1 hPa 0,5 l/m 2,4 km/h N 1,0 C 4,1 C 13,3 km/h
14.03.2021 14:00 4,9 C 81 % 1008,7 hPa 1,3 l/m 1,8 km/h N 1,9 C 4,9 C 8,4 km/h
14.03.2021 15:00 5,4 C 81 % 1008,7 hPa 0,0 l/m 1,4 km/h N 2,4 C 5,4 C 10,5 km/h
14.03.2021 16:00 5,9 C 76 % 1008,6 hPa 0,0 l/m 3,6 km/h N 2,0 C 5,9 C 14,5 km/h
14.03.2021 17:00 5,7 C 75 % 1009,0 hPa 0,0 l/m 5,3 km/h N 1,6 C 5,4 C 18,1 km/h
14.03.2021 18:00 5,4 C 74 % 1009,6 hPa 0,0 l/m 6,6 km/h N 1,2 C 4,4 C 19,7 km/h
14.03.2021 19:00 5,4 C 72 % 1010,0 hPa 0,0 l/m 7,3 km/h N 0,7 C 4,4 C 22,5 km/h
14.03.2021 20:00 4,8 C 73 % 1010,3 hPa 0,0 l/m 7,8 km/h N 0,4 C 3,5 C 20,9 km/h
14.03.2021 21:00 4,5 C 73 % 1010,9 hPa 0,0 l/m 7,6 km/h N 0,1 C 3,5 C 22,5 km/h
14.03.2021 22:00 4,3 C 73 % 1010,9 hPa 0,0 l/m 8,6 km/h N -0,2 C 2,3 C 23,3 km/h
14.03.2021 23:00 4,0 C 74 % 1010,8 hPa 0,0 l/m 8,0 km/h N -0,2 C 2,6 C 24,5 km/h
Min-Datum _ 11.03.21 13.03.21 13.03.21 - 08.03.21 - 11.03.21 11.03.21 08.03.21
_ Min-Zeit 05:15 13:00 18:00 - 00:00 - 05:15 05:15 00:15
Minimum _ -4,5 C 39 % 1003,5 hPa - 0,0 km/h - -7,1 C -4,5 C 0,0 km/h
Max-Datum _ 13.03.21 09.03.21 08.03.21 14.03.21 12.03.21 - 11.03.21 13.03.21 12.03.21
_ Max-Zeit 12:45 08:45 22:30 14:30 00:15 - 23:45 12:45 00:15
Maximum _ 15,7 C 82 % 1022,4 hPa 1,3 l/m 16,8 km/h
N
- 6,4 C 15,7 C 53,1 km/h
N
Durchschnitt _ 4,6 C 68 % 1014,1 hPa #3,6 l/m 1,9 km/h N -1,1 C 4,5 C 8,8 km/h